createdAt,value
2017-05-19T00:00:10.088Z,47.29
2017-05-19T00:00:50.678Z,47.36
2017-05-19T00:01:31.269Z,47.77
2017-05-19T00:02:11.880Z,47.39
2017-05-19T00:02:52.501Z,47.29
2017-05-19T00:03:33.109Z,47.27
2017-05-19T00:04:13.701Z,47.29
2017-05-19T00:04:54.329Z,47.1
2017-05-19T00:05:34.904Z,47.29
2017-05-19T00:06:15.498Z,47.85
2017-05-19T00:06:56.090Z,47.75
2017-05-19T00:07:36.697Z,47.56
2017-05-19T00:08:17.313Z,47.75
2017-05-19T00:08:57.902Z,47.56
2017-05-19T00:09:38.502Z,47.75
2017-05-19T00:10:19.096Z,47.75
2017-05-19T00:10:59.686Z,47.75
2017-05-19T00:11:40.266Z,47.85
2017-05-19T00:12:20.852Z,48.03
2017-05-19T00:13:01.437Z,48.52
2017-05-19T00:13:42.024Z,48.23
2017-05-19T00:14:22.623Z,48.13
2017-05-19T00:15:03.226Z,48.23
2017-05-19T00:15:43.807Z,48.33
2017-05-19T00:16:24.395Z,48.35
2017-05-19T00:17:05.031Z,48.23
2017-05-19T00:17:45.605Z,48.52
2017-05-19T00:18:26.180Z,48.13
2017-05-19T00:19:06.771Z,48.03
2017-05-19T00:19:47.350Z,48.43
2017-05-19T00:20:27.945Z,48.23
2017-05-19T00:21:08.553Z,48.23
2017-05-19T00:21:49.142Z,48.33
2017-05-19T00:22:29.715Z,47.65
2017-05-19T00:23:10.301Z,48.13
2017-05-19T00:23:50.896Z,48.23
2017-05-19T00:24:31.477Z,48.13
2017-05-19T00:25:12.070Z,48.23
2017-05-19T00:25:52.684Z,48.03
2017-05-19T00:26:33.300Z,48.33
2017-05-19T00:27:13.883Z,48.33
2017-05-19T00:27:54.484Z,48.52
2017-05-19T00:28:35.058Z,48.23
2017-05-19T00:29:15.744Z,48.23
2017-05-19T00:29:56.410Z,48.52
2017-05-19T00:30:36.970Z,48.61
2017-05-19T00:31:17.571Z,49
2017-05-19T00:31:58.188Z,48.81
2017-05-19T00:32:38.790Z,49.29
2017-05-19T00:33:19.424Z,49.1
2017-05-19T00:34:00.014Z,49
2017-05-19T00:34:40.593Z,49.27
2017-05-19T00:35:21.164Z,48.9
2017-05-19T00:36:01.760Z,49.17
2017-05-19T00:36:42.350Z,48.88
2017-05-19T00:37:22.925Z,49.17
2017-05-19T00:38:03.506Z,49.17
2017-05-19T00:38:44.078Z,49.46
2017-05-19T00:39:24.665Z,49.94
2017-05-19T00:40:05.241Z,49.65
2017-05-19T00:40:45.829Z,49.29
2017-05-19T00:41:26.417Z,49.27
2017-05-19T00:42:07.018Z,49.36
2017-05-19T00:42:47.613Z,49.36
2017-05-19T00:43:28.233Z,49.84
2017-05-19T00:44:08.833Z,49.84
2017-05-19T00:44:49.407Z,50.04
2017-05-19T00:45:29.992Z,50.04
2017-05-19T00:46:10.615Z,50.04
2017-05-19T00:46:51.243Z,49.94
2017-05-19T00:47:31.838Z,50.13
2017-05-19T00:48:12.446Z,50.51
2017-05-19T00:48:53.007Z,50.04
2017-05-19T00:49:33.632Z,49.94
2017-05-19T00:50:14.170Z,50.04
2017-05-19T00:50:54.750Z,50.51
2017-05-19T00:51:35.322Z,50.32
2017-05-19T00:52:16.510Z,50.61
2017-05-19T00:52:57.088Z,50.32
2017-05-19T00:53:37.705Z,50.23
2017-05-19T00:54:18.290Z,50.51
2017-05-19T00:54:58.896Z,50.61
2017-05-19T00:55:39.462Z,50.42
2017-05-19T00:56:20.045Z,50.51
2017-05-19T00:57:00.625Z,50.32
2017-05-19T00:57:41.212Z,50.61
2017-05-19T00:58:21.789Z,50.71
2017-05-19T00:59:02.384Z,50.71
2017-05-19T00:59:42.992Z,50.71
2017-05-19T01:00:23.565Z,50.32
2017-05-19T01:01:04.138Z,50.71
2017-05-19T01:01:44.738Z,50.42
2017-05-19T01:02:25.307Z,50.81
2017-05-19T01:03:05.897Z,50.51
2017-05-19T01:03:46.482Z,50.81
2017-05-19T01:04:27.057Z,50.23
2017-05-19T01:05:07.678Z,50.32
2017-05-19T01:05:48.281Z,50.42
2017-05-19T01:06:28.898Z,50.51
2017-05-19T01:07:09.473Z,50.32
2017-05-19T01:07:50.054Z,50.51
2017-05-19T01:08:30.643Z,50.51
2017-05-19T01:09:11.226Z,50.32
2017-05-19T01:09:51.857Z,50.71
2017-05-19T01:10:32.457Z,50.61
2017-05-19T01:11:13.048Z,50.71
2017-05-19T01:11:53.638Z,50.71
2017-05-19T01:12:34.243Z,50.71
2017-05-19T01:13:14.862Z,50.61
2017-05-19T01:13:55.430Z,50.9
2017-05-19T01:14:36.024Z,51.09
2017-05-19T01:15:16.665Z,50.9
2017-05-19T01:15:57.241Z,51.29
2017-05-19T01:16:37.827Z,50.9
2017-05-19T01:17:18.415Z,51.17
2017-05-19T01:17:59.052Z,51.19
2017-05-19T01:18:39.614Z,51.76
2017-05-19T01:19:20.184Z,51.67
2017-05-19T01:20:00.801Z,51.57
2017-05-19T01:20:41.378Z,51.57
2017-05-19T01:21:21.956Z,51.76
2017-05-19T01:22:02.550Z,51.29
2017-05-19T01:22:43.131Z,51.09
2017-05-19T01:23:23.759Z,51.67
2017-05-19T01:24:04.354Z,51.29
2017-05-19T01:24:44.924Z,51.29
2017-05-19T01:25:25.499Z,50.99
2017-05-19T01:26:06.077Z,51.76
2017-05-19T01:26:46.690Z,51.38
2017-05-19T01:27:27.281Z,51.67
2017-05-19T01:28:07.909Z,51.38
2017-05-19T01:28:48.523Z,51.19
2017-05-19T01:29:29.125Z,51.29
2017-05-19T01:30:09.761Z,51.57
2017-05-19T01:30:50.330Z,51.38
2017-05-19T01:31:30.932Z,51.48
2017-05-19T01:32:11.517Z,51.67
2017-05-19T01:32:52.083Z,51.48
2017-05-19T01:33:32.655Z,51.57
2017-05-19T01:34:13.276Z,51.38
2017-05-19T01:34:53.860Z,51.76
2017-05-19T01:35:34.454Z,51.67
2017-05-19T01:36:15.031Z,51.48
2017-05-19T01:36:55.605Z,51.48
2017-05-19T01:37:36.228Z,51.48
2017-05-19T01:38:16.801Z,51.57
2017-05-19T01:38:57.397Z,51.48
2017-05-19T01:39:37.953Z,51.48
2017-05-19T01:40:18.532Z,51.76
2017-05-19T01:40:59.129Z,52.25
2017-05-19T01:41:39.711Z,51.57
2017-05-19T01:42:20.319Z,51.48
2017-05-19T01:43:00.911Z,52.06
2017-05-19T01:43:41.518Z,51.93
2017-05-19T01:44:22.113Z,52.25
2017-05-19T01:45:02.721Z,52.15
2017-05-19T01:45:43.316Z,51.96
2017-05-19T01:46:23.883Z,52.15
2017-05-19T01:47:04.488Z,52.34
2017-05-19T01:47:45.073Z,51.57
2017-05-19T01:48:25.675Z,51.74
2017-05-19T01:49:06.271Z,51.76
2017-05-19T01:49:46.850Z,52.15
2017-05-19T01:50:27.438Z,51.96
2017-05-19T01:51:08.025Z,51.35
2017-05-19T01:51:48.618Z,51.48
2017-05-19T01:52:29.191Z,51.48
2017-05-19T01:53:09.816Z,51.29
2017-05-19T01:53:50.382Z,51.67
2017-05-19T01:54:30.948Z,52.06
2017-05-19T01:55:11.531Z,52.03
2017-05-19T01:55:52.145Z,52.54
2017-05-19T01:56:32.756Z,51.93
2017-05-19T01:57:13.348Z,52.03
2017-05-19T01:57:53.963Z,52.32
2017-05-19T01:58:34.520Z,52.22
2017-05-19T01:59:15.110Z,52.42
2017-05-19T01:59:55.716Z,52.61
2017-05-19T02:00:36.299Z,52.32
2017-05-19T02:01:16.930Z,52.32
2017-05-19T02:01:57.555Z,52.22
2017-05-19T02:02:38.169Z,52.42
2017-05-19T02:03:18.795Z,52.8
2017-05-19T02:03:59.403Z,52.7
2017-05-19T02:04:39.991Z,52.7
2017-05-19T02:05:20.629Z,52.8
2017-05-19T02:06:01.208Z,52.61
2017-05-19T02:06:41.830Z,52.7
2017-05-19T02:07:22.428Z,52.8
2017-05-19T02:08:02.995Z,52.7
2017-05-19T02:08:43.645Z,52.61
2017-05-19T02:09:24.189Z,52.89
2017-05-19T02:10:04.796Z,52.89
2017-05-19T02:10:45.398Z,52.7
2017-05-19T02:11:25.989Z,52.99
2017-05-19T02:12:06.549Z,53.28
2017-05-19T02:12:47.191Z,53.09
2017-05-19T02:13:27.892Z,53.09
2017-05-19T02:14:08.526Z,53.19
2017-05-19T02:14:49.095Z,52.99
2017-05-19T02:15:29.733Z,53.28
2017-05-19T02:16:10.389Z,53.57
2017-05-19T02:16:50.957Z,53.38
2017-05-19T02:17:31.558Z,53.76
2017-05-19T02:18:12.131Z,53.66
2017-05-19T02:18:52.733Z,53.86
2017-05-19T02:19:33.345Z,53.66
2017-05-19T02:20:13.928Z,53.47
2017-05-19T02:20:54.626Z,53.38
2017-05-19T02:21:35.221Z,52.99
2017-05-19T02:22:15.813Z,53.28
2017-05-19T02:22:56.379Z,53.57
2017-05-19T02:23:36.972Z,53.86
2017-05-19T02:24:17.580Z,53.86
2017-05-19T02:24:58.178Z,53.96
2017-05-19T02:25:38.778Z,53.47
2017-05-19T02:26:19.366Z,53.66
2017-05-19T02:26:59.962Z,53.38
2017-05-19T02:27:40.545Z,53.76
2017-05-19T02:28:21.134Z,53.76
2017-05-19T02:29:01.729Z,53.47
2017-05-19T02:29:42.309Z,53.47
2017-05-19T02:30:22.878Z,53.76
2017-05-19T02:31:03.491Z,53.57
2017-05-19T02:31:44.115Z,53.57
2017-05-19T02:32:24.710Z,53.38
2017-05-19T02:33:05.358Z,53.96
2017-05-19T02:33:45.924Z,53.57
2017-05-19T02:34:26.525Z,53.57
2017-05-19T02:35:07.126Z,54.05
2017-05-19T02:35:47.690Z,54.14
2017-05-19T02:36:28.283Z,54.02
2017-05-19T02:37:08.899Z,53.54
2017-05-19T02:37:49.497Z,53.96
2017-05-19T02:38:30.101Z,54.24
2017-05-19T02:39:10.686Z,54.31
2017-05-19T02:39:51.256Z,54.31
2017-05-19T02:40:31.851Z,54.12
2017-05-19T02:41:12.451Z,54.12
2017-05-19T02:41:53.061Z,54.22
2017-05-19T02:42:33.619Z,54.79
2017-05-19T02:43:14.197Z,54.99
2017-05-19T02:43:54.780Z,54.89
2017-05-19T02:44:35.366Z,55.08
2017-05-19T02:45:16.021Z,54.89
2017-05-19T02:45:56.635Z,54.79
2017-05-19T02:46:37.260Z,55.37
2017-05-19T02:47:17.868Z,55.27
2017-05-19T02:47:58.443Z,55.27
2017-05-19T02:48:39.040Z,55.66
2017-05-19T02:49:19.630Z,55.46
2017-05-19T02:50:00.272Z,55.37
2017-05-19T02:50:40.808Z,55.56
2017-05-19T02:51:21.382Z,55.37
2017-05-19T02:52:01.968Z,55.46
2017-05-19T02:52:42.546Z,55.27
2017-05-19T02:53:23.133Z,56.04
2017-05-19T02:54:03.723Z,55.76
2017-05-19T02:54:44.305Z,55.76
2017-05-19T02:55:24.886Z,55.85
2017-05-19T02:56:05.494Z,55.94
2017-05-19T02:56:46.101Z,56.14
2017-05-19T02:57:26.714Z,55.85
2017-05-19T02:58:07.301Z,56.14
2017-05-19T02:58:47.886Z,55.94
2017-05-19T02:59:28.507Z,56.33
2017-05-19T03:00:09.102Z,56.33
2017-05-19T03:00:49.714Z,56.04
2017-05-19T03:01:30.331Z,56.04
2017-05-19T03:02:10.932Z,56.23
2017-05-19T03:02:51.494Z,56.23
2017-05-19T03:03:32.121Z,56.23
2017-05-19T03:04:12.702Z,56.14
2017-05-19T03:04:53.289Z,55.94
2017-05-19T03:05:33.897Z,56.91
2017-05-19T03:06:14.478Z,56.04
2017-05-19T03:06:55.069Z,56.11
2017-05-19T03:07:35.693Z,56.52
2017-05-19T03:08:16.267Z,56.14
2017-05-19T03:08:56.874Z,56.23
2017-05-19T03:09:37.463Z,56.21
2017-05-19T03:10:18.073Z,56.81
2017-05-19T03:10:58.675Z,56.52
2017-05-19T03:11:39.273Z,56.78
2017-05-19T03:12:19.893Z,56.78
2017-05-19T03:13:00.509Z,56.4
2017-05-19T03:13:41.094Z,56.98
2017-05-19T03:14:21.673Z,57.07
2017-05-19T03:15:02.311Z,57.17
2017-05-19T03:15:42.888Z,56.21
2017-05-19T03:16:23.501Z,56.68
2017-05-19T03:17:04.084Z,57.07
2017-05-19T03:17:44.698Z,56.88
2017-05-19T03:18:25.316Z,56.78
2017-05-19T03:19:05.889Z,56.3
2017-05-19T03:19:46.472Z,57.17
2017-05-19T03:20:27.051Z,56.98
2017-05-19T03:21:07.655Z,57.07
2017-05-19T03:21:48.243Z,57.26
2017-05-19T03:22:28.829Z,57.07
2017-05-19T03:23:09.447Z,57.17
2017-05-19T03:23:50.059Z,56.88
2017-05-19T03:24:30.663Z,56.98
2017-05-19T03:25:11.278Z,57.26
2017-05-19T03:25:51.889Z,56.59
2017-05-19T03:26:32.510Z,56.49
2017-05-19T03:27:13.103Z,57.07
2017-05-19T03:27:53.682Z,57.07
2017-05-19T03:28:34.277Z,57.17
2017-05-19T03:29:14.848Z,57.36
2017-05-19T03:29:55.477Z,57.17
2017-05-19T03:30:36.066Z,57.45
2017-05-19T03:31:16.645Z,57.93
2017-05-19T03:31:57.230Z,57.36
2017-05-19T03:32:37.808Z,57.84
2017-05-19T03:33:18.383Z,57.45
2017-05-19T03:33:58.968Z,57.36
2017-05-19T03:34:39.559Z,57.26
2017-05-19T03:35:20.173Z,57.26
2017-05-19T03:36:00.771Z,57.45
2017-05-19T03:36:41.351Z,57.36
2017-05-19T03:37:21.946Z,57.36
2017-05-19T03:38:02.540Z,57.45
2017-05-19T03:38:43.133Z,57.26
2017-05-19T03:39:23.727Z,57.07
2017-05-19T03:40:04.308Z,57.36
2017-05-19T03:40:44.932Z,57.45
2017-05-19T03:41:25.530Z,57.17
2017-05-19T03:42:06.107Z,57.36
2017-05-19T03:42:46.706Z,57.36
2017-05-19T03:43:27.300Z,57.65
2017-05-19T03:44:07.880Z,57.36
2017-05-19T03:44:48.455Z,57.07
2017-05-19T03:45:29.042Z,57.36
2017-05-19T03:46:09.641Z,57.55
2017-05-19T03:46:50.243Z,57.65
2017-05-19T03:47:30.838Z,57.17
2017-05-19T03:48:11.411Z,57.45
2017-05-19T03:48:52.012Z,57.36
2017-05-19T03:49:32.635Z,57.17
2017-05-19T03:50:13.229Z,57.65
2017-05-19T03:50:53.814Z,57.45
2017-05-19T03:51:34.384Z,57.45
2017-05-19T03:52:14.979Z,57.26
2017-05-19T03:52:55.574Z,57.17
2017-05-19T03:53:36.154Z,57.26
2017-05-19T03:54:16.770Z,57.55
2017-05-19T03:54:57.376Z,57.17
2017-05-19T03:55:37.981Z,57.26
2017-05-19T03:56:18.560Z,57.36
2017-05-19T03:56:59.144Z,57.36
2017-05-19T03:57:39.731Z,57.36
2017-05-19T03:58:20.311Z,57.36
2017-05-19T03:59:00.932Z,57.45
2017-05-19T03:59:41.518Z,57.36
2017-05-19T04:00:22.096Z,57.84
2017-05-19T04:01:02.678Z,57.68
2017-05-19T04:01:43.301Z,57.45
2017-05-19T04:02:23.892Z,57.84
2017-05-19T04:03:04.468Z,57.93
2017-05-19T04:03:45.050Z,57.45
2017-05-19T04:04:25.648Z,57.93
2017-05-19T04:05:06.234Z,57.97
2017-05-19T04:05:46.834Z,58.13
2017-05-19T04:06:27.430Z,58.51
2017-05-19T04:07:08.010Z,58.03
2017-05-19T04:07:48.589Z,58.03
2017-05-19T04:08:29.196Z,58.13
2017-05-19T04:09:09.771Z,58.22
2017-05-19T04:09:50.415Z,58.13
2017-05-19T04:10:30.999Z,58.06
2017-05-19T04:11:11.586Z,58.13
2017-05-19T04:11:52.177Z,57.77
2017-05-19T04:12:32.763Z,58.15
2017-05-19T04:13:13.341Z,57.84
2017-05-19T04:13:53.945Z,57.55
2017-05-19T04:14:34.557Z,57.58
2017-05-19T04:15:15.153Z,58.25
2017-05-19T04:15:55.734Z,58.13
2017-05-19T04:16:36.325Z,58.15
2017-05-19T04:17:16.895Z,58.06
2017-05-19T04:17:57.496Z,58.22
2017-05-19T04:18:38.083Z,57.68
2017-05-19T04:19:18.657Z,57.17
2017-05-19T04:19:59.254Z,57.39
2017-05-19T04:20:39.830Z,57.39
2017-05-19T04:21:20.409Z,57.58
2017-05-19T04:22:00.992Z,57.39
2017-05-19T04:22:41.591Z,57.58
2017-05-19T04:23:22.182Z,57.77
2017-05-19T04:24:02.793Z,57.58
2017-05-19T04:24:43.376Z,57.87
2017-05-19T04:25:23.977Z,57.48
2017-05-19T04:26:04.575Z,57.77
2017-05-19T04:26:45.141Z,57.97
2017-05-19T04:27:25.742Z,57.87
2017-05-19T04:28:06.348Z,57.87
2017-05-19T04:28:46.913Z,57.2
2017-05-19T04:29:27.531Z,57.39
2017-05-19T04:30:08.176Z,57.58
2017-05-19T04:30:48.751Z,57.2
2017-05-19T04:31:29.376Z,57.87
2017-05-19T04:32:09.955Z,57.87
2017-05-19T04:32:50.567Z,57.68
2017-05-19T04:33:31.133Z,57.87
2017-05-19T04:34:11.709Z,57.77
2017-05-19T04:34:52.311Z,57.97
2017-05-19T04:35:32.924Z,57.68
2017-05-19T04:36:13.483Z,57.97
2017-05-19T04:36:54.077Z,57.2
2017-05-19T04:37:34.688Z,57.2
2017-05-19T04:38:15.267Z,57
2017-05-19T04:38:55.857Z,57
2017-05-19T04:39:36.490Z,57.2
2017-05-19T04:40:17.050Z,57.1
2017-05-19T04:40:57.635Z,57.68
2017-05-19T04:41:38.236Z,57.68
2017-05-19T04:42:18.807Z,57.39
2017-05-19T04:42:59.391Z,57.39
2017-05-19T04:43:39.982Z,57.2
2017-05-19T04:44:20.543Z,57.1
2017-05-19T04:45:01.143Z,57.87
2017-05-19T04:45:41.734Z,57.48
2017-05-19T04:46:22.345Z,57.58
2017-05-19T04:47:02.955Z,57.87
2017-05-19T04:47:43.540Z,57.68
2017-05-19T04:48:24.118Z,57.39
2017-05-19T04:49:04.727Z,57.39
2017-05-19T04:49:45.361Z,57.29
2017-05-19T04:50:25.956Z,57.2
2017-05-19T04:51:06.524Z,57.39
2017-05-19T04:51:47.114Z,57.2
2017-05-19T04:52:27.677Z,57.48
2017-05-19T04:53:08.313Z,57.48
2017-05-19T04:53:48.853Z,57.87
2017-05-19T04:54:29.464Z,57.87
2017-05-19T04:55:10.082Z,57.58
2017-05-19T04:55:50.678Z,57.97
2017-05-19T04:56:31.271Z,58.45
2017-05-19T04:57:11.928Z,57.97
2017-05-19T04:57:52.550Z,58.06
2017-05-19T04:58:33.121Z,58.25
2017-05-19T04:59:13.711Z,58.06
2017-05-19T04:59:54.290Z,57.58
2017-05-19T05:00:34.906Z,57.48
2017-05-19T05:01:15.532Z,57.39
2017-05-19T05:01:56.101Z,57.48
2017-05-19T05:02:36.715Z,57.87
2017-05-19T05:03:17.314Z,57.48
2017-05-19T05:03:57.972Z,57.48
2017-05-19T05:04:38.621Z,57.48
2017-05-19T05:05:19.210Z,57.48
2017-05-19T05:05:59.789Z,57.58
2017-05-19T05:06:40.408Z,57.39
2017-05-19T05:07:21.013Z,56.81
2017-05-19T05:08:01.588Z,56.62
2017-05-19T05:08:42.201Z,56.71
2017-05-19T05:09:22.799Z,56.33
2017-05-19T05:10:03.421Z,55.85
2017-05-19T05:10:44.008Z,56.23
2017-05-19T05:11:24.619Z,56.23
2017-05-19T05:12:05.260Z,55.85
2017-05-19T05:12:45.816Z,56.43
2017-05-19T05:13:26.451Z,55.94
2017-05-19T05:14:07.072Z,55.76
2017-05-19T05:14:47.710Z,55.85
2017-05-19T05:15:28.286Z,55.85
2017-05-19T05:16:08.928Z,56.04
2017-05-19T05:16:49.545Z,56.04
2017-05-19T05:17:30.098Z,55.76
2017-05-19T05:18:10.679Z,56.33
2017-05-19T05:18:51.265Z,56.16
2017-05-19T05:19:31.863Z,56.07
2017-05-19T05:20:12.465Z,56.07
2017-05-19T05:20:53.077Z,56.52
2017-05-19T05:21:33.682Z,56.62
2017-05-19T05:22:14.274Z,56.04
2017-05-19T05:22:54.848Z,56.23
2017-05-19T05:23:35.505Z,56.16
2017-05-19T05:24:16.079Z,55.98
2017-05-19T05:24:56.671Z,55.98
2017-05-19T05:25:37.452Z,55.88
2017-05-19T05:26:18.036Z,56.16
2017-05-19T05:26:58.636Z,56.74
2017-05-19T05:27:39.219Z,56.74
2017-05-19T05:28:19.809Z,56.65
2017-05-19T05:29:00.398Z,56.65
2017-05-19T05:29:40.995Z,56.1
2017-05-19T05:30:21.561Z,55.78
2017-05-19T05:31:02.138Z,55.33
2017-05-19T05:31:42.729Z,55.81
2017-05-19T05:32:23.355Z,54.65
2017-05-19T05:33:03.885Z,54.75
2017-05-19T05:33:44.465Z,54.36
2017-05-19T05:34:25.038Z,53.98
2017-05-19T05:35:05.646Z,53.62
2017-05-19T05:35:46.241Z,53.53
2017-05-19T05:36:26.837Z,53.72
2017-05-19T05:37:07.431Z,53.53
2017-05-19T05:37:48.024Z,53.23
2017-05-19T05:38:28.654Z,53.23
2017-05-19T05:39:09.253Z,52.97
2017-05-19T05:39:49.872Z,52.69
2017-05-19T05:40:30.457Z,52.59
2017-05-19T05:41:11.147Z,52.49
2017-05-19T05:41:51.757Z,52.2
2017-05-19T05:42:32.359Z,51.75
2017-05-19T05:43:12.998Z,51.36
2017-05-19T05:43:53.614Z,51.17
2017-05-19T05:44:34.195Z,50.78
2017-05-19T05:45:14.774Z,51.07
2017-05-19T05:45:55.405Z,50.88
2017-05-19T05:46:35.987Z,50.4
2017-05-19T05:47:16.574Z,50.42
2017-05-19T05:47:57.169Z,50.32
2017-05-19T05:48:37.748Z,49.94
2017-05-19T05:49:18.340Z,50.13
2017-05-19T05:49:58.916Z,50.16
2017-05-19T05:50:39.504Z,49.77
2017-05-19T05:51:20.112Z,48.81
2017-05-19T05:52:00.705Z,49.19
2017-05-19T05:52:41.338Z,49.19
2017-05-19T05:53:21.957Z,48.54
2017-05-19T05:54:02.589Z,48.25
2017-05-19T05:54:43.182Z,48.25
2017-05-19T05:55:23.772Z,47.87
2017-05-19T05:56:04.359Z,47.96
2017-05-19T05:56:44.945Z,47.96
2017-05-19T05:57:25.534Z,47.89
2017-05-19T05:58:06.117Z,48.18
2017-05-19T05:58:46.745Z,47.7
2017-05-19T05:59:27.359Z,47.89
2017-05-19T06:00:07.938Z,47.5
2017-05-19T06:00:48.536Z,46.92
2017-05-19T06:01:29.148Z,46.54
2017-05-19T06:02:09.790Z,46.34
2017-05-19T06:02:50.387Z,46.92
2017-05-19T06:03:30.979Z,46.64
2017-05-19T06:04:11.551Z,46.95
2017-05-19T06:04:52.188Z,47.91
2017-05-19T06:05:32.758Z,47.05
2017-05-19T06:06:13.375Z,46.08
2017-05-19T06:06:53.968Z,45.89
2017-05-19T06:07:34.592Z,45.01
2017-05-19T06:08:15.210Z,45.59
2017-05-19T06:08:55.865Z,45.5
2017-05-19T06:09:36.513Z,45.23
2017-05-19T06:10:17.163Z,45.23
2017-05-19T06:10:57.750Z,45.42
2017-05-19T06:11:38.381Z,44.94
2017-05-19T06:12:19.011Z,44.56
2017-05-19T06:12:59.607Z,44.48
2017-05-19T06:13:40.215Z,44.29
2017-05-19T06:14:20.881Z,45.16
2017-05-19T06:15:01.478Z,45.35
2017-05-19T06:15:42.080Z,44.87
2017-05-19T06:16:22.669Z,45.16
2017-05-19T06:17:03.244Z,45.35
2017-05-19T06:17:43.830Z,45.66
2017-05-19T06:18:24.417Z,44.6
2017-05-19T06:19:05.035Z,44.02
2017-05-19T06:19:45.652Z,43.82
2017-05-19T06:20:26.271Z,43.63
2017-05-19T06:21:06.859Z,43.82
2017-05-19T06:21:47.482Z,43.63
2017-05-19T06:22:28.085Z,43.73
2017-05-19T06:23:08.980Z,43.07
2017-05-19T06:23:49.580Z,42.88
2017-05-19T06:24:30.158Z,42.78
2017-05-19T06:25:10.777Z,42.78
2017-05-19T06:25:51.360Z,42.68
2017-05-19T06:26:32.406Z,42.3
2017-05-19T06:27:13.048Z,41.91
2017-05-19T06:27:53.693Z,41.82
2017-05-19T06:28:34.332Z,42.03
2017-05-19T06:29:14.933Z,42.03
2017-05-19T06:29:55.579Z,41.93
2017-05-19T06:30:36.177Z,42.22
2017-05-19T06:31:16.798Z,41.93
2017-05-19T06:31:57.404Z,41.45
2017-05-19T06:32:38.021Z,41.25
2017-05-19T06:33:18.894Z,41.35
2017-05-19T06:33:59.530Z,41.16
2017-05-19T06:34:40.153Z,40.89
2017-05-19T06:36:33.064Z,40.31
2017-05-19T06:37:13.668Z,40.99
2017-05-19T06:37:54.248Z,40.69
2017-05-19T06:38:34.858Z,40.31
2017-05-19T06:39:15.476Z,40.11
2017-05-19T06:39:56.064Z,39.72
2017-05-19T06:40:36.678Z,40.01
2017-05-19T06:41:17.288Z,39.72
2017-05-19T06:41:57.913Z,39.92
2017-05-19T06:42:38.506Z,40.01
2017-05-19T06:43:19.138Z,40.99
2017-05-19T06:43:59.793Z,41.17
2017-05-19T06:44:40.362Z,40.5
2017-05-19T06:45:20.958Z,40.03
2017-05-19T06:46:01.582Z,40.11
2017-05-19T06:46:42.190Z,40.23
2017-05-19T06:47:22.798Z,40.91
2017-05-19T06:48:03.439Z,40.61
2017-05-19T06:48:44.077Z,40.52
2017-05-19T06:49:24.680Z,41
2017-05-19T06:50:05.297Z,40.71
2017-05-19T06:50:45.900Z,38.87
2017-05-19T06:51:26.515Z,38.78
2017-05-19T06:52:07.153Z,39.65
2017-05-19T06:52:47.742Z,40.42
2017-05-19T06:53:28.381Z,40.03
2017-05-19T06:54:08.979Z,39.26
2017-05-19T06:54:49.591Z,39.65
2017-05-19T06:55:30.192Z,39.74
2017-05-19T06:56:10.794Z,40.13
2017-05-19T06:56:51.389Z,39.65
2017-05-19T06:57:32.021Z,40.03
2017-05-19T06:58:12.652Z,39.84
2017-05-19T06:58:53.271Z,39.74
2017-05-19T06:59:33.876Z,39.74
2017-05-19T07:00:14.493Z,39.55
2017-05-19T07:00:55.108Z,39.84
2017-05-19T07:01:35.734Z,40.42
2017-05-19T07:02:16.372Z,39.84
2017-05-19T07:02:56.970Z,39.67
2017-05-19T07:03:37.574Z,40.13
2017-05-19T07:04:18.205Z,39.76
2017-05-19T07:04:58.829Z,40.25
2017-05-19T07:05:39.427Z,39.57
2017-05-19T07:06:20.029Z,38.79
2017-05-19T07:07:00.633Z,39.18
2017-05-19T07:07:41.235Z,39.86
2017-05-19T07:08:21.875Z,39.28
2017-05-19T07:09:02.480Z,39.95
2017-05-19T07:09:43.092Z,40.15
2017-05-19T07:10:23.707Z,39.28
2017-05-19T07:11:04.348Z,39.29
2017-05-19T07:11:44.968Z,38.71
2017-05-19T07:12:25.589Z,39.01
2017-05-19T07:13:06.207Z,38.81
2017-05-19T07:13:46.823Z,38.81
2017-05-19T07:14:27.455Z,38.71
2017-05-19T07:15:08.102Z,38.81
2017-05-19T07:15:48.685Z,38.52
2017-05-19T07:16:29.439Z,38.04
2017-05-19T07:17:10.075Z,38.71
2017-05-19T07:17:50.701Z,38.23
2017-05-19T07:18:31.333Z,38.71
2017-05-19T07:19:11.974Z,38.32
2017-05-19T07:19:52.588Z,38.13
2017-05-19T07:20:33.205Z,37.94
2017-05-19T07:21:13.821Z,38.32
2017-05-19T07:21:54.463Z,38.91
2017-05-19T07:22:35.082Z,38.23
2017-05-19T07:23:15.739Z,38.04
2017-05-19T07:23:56.291Z,37.74
2017-05-19T07:24:36.937Z,38.23
2017-05-19T07:25:17.566Z,38.62
2017-05-19T07:25:58.149Z,38.71
2017-05-19T07:26:38.787Z,39.01
2017-05-19T07:27:19.551Z,38.25
2017-05-19T07:28:00.218Z,37.57
2017-05-19T07:28:40.859Z,37.57
2017-05-19T07:29:21.446Z,37.57
2017-05-19T07:30:02.052Z,37.76
2017-05-19T07:30:42.641Z,38.64
2017-05-19T07:31:23.268Z,39.03
2017-05-19T07:32:03.901Z,39.12
2017-05-19T07:32:44.501Z,39.8
2017-05-19T07:33:25.121Z,39.03
2017-05-19T07:34:05.698Z,37.59
2017-05-19T07:34:46.316Z,36.22
2017-05-19T07:35:26.899Z,36.61
2017-05-19T07:36:07.530Z,37.01
2017-05-19T07:36:48.191Z,37.59
2017-05-19T07:37:28.827Z,36.81
2017-05-19T07:38:09.404Z,37.1
2017-05-19T07:38:50.066Z,36.81
2017-05-19T07:39:30.805Z,37.01
2017-05-19T07:40:11.499Z,36.52
2017-05-19T07:40:52.099Z,36.4
2017-05-19T07:41:32.758Z,37.78
2017-05-19T07:42:13.389Z,38.27
2017-05-19T07:42:54.062Z,38.17
2017-05-19T07:43:34.783Z,36.91
2017-05-19T07:44:15.456Z,36.52
2017-05-19T07:44:56.179Z,36.32
2017-05-19T07:45:36.801Z,37.78
2017-05-19T07:46:17.412Z,36.69
2017-05-19T07:46:58.066Z,37.39
2017-05-19T07:47:38.661Z,36.89
2017-05-19T07:48:19.269Z,38.06
2017-05-19T07:48:59.859Z,36.89
2017-05-19T07:49:40.481Z,37.57
2017-05-19T07:50:21.100Z,36.89
2017-05-19T07:51:02.193Z,37.96
2017-05-19T07:51:42.521Z,38.15
2017-05-19T07:52:23.112Z,37.98
2017-05-19T07:53:03.718Z,38.64
2017-05-19T07:53:44.307Z,38.65
2017-05-19T07:54:24.909Z,38.17
2017-05-19T07:55:05.519Z,37.49
2017-05-19T07:55:46.187Z,37.1
2017-05-19T07:56:26.975Z,37.98
2017-05-19T07:57:07.615Z,38.27
2017-05-19T07:57:48.298Z,37.01
2017-05-19T07:58:28.935Z,36.71
2017-05-19T07:59:09.585Z,37.68
2017-05-19T07:59:50.284Z,37.98
2017-05-19T08:00:31.007Z,38.17
2017-05-19T08:01:11.619Z,36.71
2017-05-19T08:01:52.216Z,36.71
2017-05-19T08:02:32.866Z,37.88
2017-05-19T08:03:13.457Z,38.27
2017-05-19T08:03:54.080Z,37.68
2017-05-19T08:04:34.705Z,37.59
2017-05-19T08:05:15.317Z,37.39
2017-05-19T08:05:55.925Z,37.68
2017-05-19T08:06:36.662Z,37.98
2017-05-19T08:07:17.264Z,37.78
2017-05-19T08:07:57.857Z,37.88
2017-05-19T08:08:38.509Z,36.32
2017-05-19T08:09:19.136Z,36.81
2017-05-19T08:09:59.750Z,37.49
2017-05-19T08:10:40.334Z,36.54
2017-05-19T08:11:20.927Z,35.16
2017-05-19T08:12:01.535Z,35.74
2017-05-19T08:12:42.135Z,36.52
2017-05-19T08:13:22.734Z,35.55
2017-05-19T08:14:03.327Z,35.45
2017-05-19T08:14:43.981Z,36.71
2017-05-19T08:15:24.598Z,37.01
2017-05-19T08:16:05.229Z,37.51
2017-05-19T08:16:45.847Z,37.51
2017-05-19T08:17:26.445Z,37.8
2017-05-19T08:18:07.051Z,37.9
2017-05-19T08:18:47.623Z,35.57
2017-05-19T08:19:28.209Z,35.86
2017-05-19T08:20:08.833Z,35.17
2017-05-19T08:20:49.395Z,35.57
2017-05-19T08:21:30.068Z,37.51
2017-05-19T08:22:10.687Z,36.34
2017-05-19T08:22:51.624Z,36.54
2017-05-19T08:23:32.852Z,36.63
2017-05-19T08:24:14.059Z,36.73
2017-05-19T08:24:55.295Z,35.25
2017-05-19T08:25:36.272Z,36.52
2017-05-19T08:26:16.877Z,36.61
2017-05-19T08:26:57.504Z,37.49
2017-05-19T08:27:38.129Z,37.78
2017-05-19T08:28:18.738Z,37.59
2017-05-19T08:28:59.337Z,36.32
2017-05-19T08:29:39.931Z,36.32
2017-05-19T08:30:20.568Z,36.91
2017-05-19T08:31:01.163Z,36.71
2017-05-19T08:31:41.744Z,36.52
2017-05-19T08:32:22.337Z,37.59
2017-05-19T08:33:02.920Z,37.49
2017-05-19T08:33:43.517Z,37.49
2017-05-19T08:34:24.093Z,37.01
2017-05-19T08:35:04.693Z,35.64
2017-05-19T08:35:45.304Z,34.97
2017-05-19T08:36:25.872Z,35.16
2017-05-19T08:37:06.459Z,36.71
2017-05-19T08:37:47.047Z,36.42
2017-05-19T08:38:27.660Z,35.35
2017-05-19T08:39:08.261Z,36.71
2017-05-19T08:39:48.847Z,37.68
2017-05-19T08:40:29.430Z,37.49
2017-05-19T08:41:10.011Z,36.32
2017-05-19T08:41:50.602Z,35.55
2017-05-19T08:42:31.198Z,35.35
2017-05-19T08:43:11.804Z,37.2
2017-05-19T08:43:52.395Z,36.71
2017-05-19T08:44:32.975Z,36.42
2017-05-19T08:45:13.568Z,36.81